createdAt,value
2023-03-26T00:01:46.426Z,3.47
2023-03-26T00:04:19.517Z,2.20
2023-03-26T00:06:48.985Z,2.55
2023-03-26T00:09:17.497Z,2.35
2023-03-26T00:11:46.267Z,1.38
2023-03-26T00:14:17.496Z,2.05
2023-03-26T00:16:47.578Z,3.10
2023-03-26T00:19:17.181Z,1.73
2023-03-26T00:21:45.116Z,2.00
2023-03-26T00:24:15.052Z,3.45
2023-03-26T00:26:44.521Z,3.40
2023-03-26T00:29:13.789Z,2.22
2023-03-26T00:31:46.396Z,4.15
2023-03-26T00:34:15.677Z,2.75
2023-03-26T00:36:46.800Z,3.42
2023-03-26T00:39:15.220Z,2.40
2023-03-26T00:41:44.211Z,1.77
2023-03-26T00:44:12.531Z,2.33
2023-03-26T00:46:40.976Z,5.53
2023-03-26T00:49:10.651Z,4.72
2023-03-26T00:51:39.271Z,4.55
2023-03-26T00:54:09.845Z,1.65
2023-03-26T00:56:38.664Z,3.92
2023-03-26T00:59:06.669Z,3.25
2023-03-26T01:01:34.675Z,4.75
2023-03-26T01:04:24.013Z,2.60
2023-03-26T01:06:52.164Z,2.60
2023-03-26T01:09:25.419Z,4.47
2023-03-26T01:11:53.568Z,4.85
2023-03-26T01:14:24.698Z,2.08
2023-03-26T01:16:55.385Z,4.22
2023-03-26T01:19:29.247Z,2.15
2023-03-26T01:21:57.489Z,4.72
2023-03-26T01:24:27.102Z,4.05
2023-03-26T01:27:17.754Z,4.60
2023-03-26T01:29:52.763Z,3.60
2023-03-26T01:32:44.057Z,9.02
2023-03-26T01:35:30.529Z,7.20
2023-03-26T01:38:10.899Z,3.13
2023-03-26T01:40:47.011Z,2.88
2023-03-26T01:43:25.318Z,4.32
2023-03-26T01:45:54.671Z,3.00
2023-03-26T01:48:29.043Z,3.72
2023-03-26T01:50:58.779Z,3.80
2023-03-26T01:53:27.889Z,2.97
2023-03-26T01:56:06.223Z,2.03
2023-03-26T01:58:42.237Z,2.42
2023-03-26T02:01:24.451Z,6.70
2023-03-26T02:03:59.987Z,4.70
2023-03-26T02:06:37.431Z,3.55
2023-03-26T02:09:09.987Z,4.57
2023-03-26T02:11:41.478Z,7.47
2023-03-26T02:14:10.443Z,3.70
2023-03-26T02:16:38.480Z,4.45
2023-03-26T02:19:15.828Z,5.07
2023-03-26T02:21:43.980Z,5.63
2023-03-26T02:24:12.215Z,4.18
2023-03-26T02:26:41.984Z,1.58
2023-03-26T02:29:13.267Z,2.55
2023-03-26T02:31:43.850Z,2.67
2023-03-26T02:34:11.788Z,4.53
2023-03-26T02:36:43.719Z,4.47
2023-03-26T02:39:14.261Z,4.22
2023-03-26T02:41:46.917Z,5.47
2023-03-26T02:44:14.841Z,3.28
2023-03-26T02:47:02.727Z,4.25
2023-03-26T02:49:49.095Z,2.58
2023-03-26T02:52:24.914Z,4.70
2023-03-26T02:54:55.399Z,5.53
2023-03-26T02:57:26.803Z,9.23
2023-03-26T03:00:13.125Z,5.68
2023-03-26T03:02:47.988Z,4.70
2023-03-26T03:05:48.429Z,4.07
2023-03-26T03:08:31.434Z,5.13
2023-03-26T03:11:11.805Z,5.97
2023-03-26T03:13:45.659Z,4.80
2023-03-26T03:16:18.060Z,5.82
2023-03-26T03:18:47.515Z,4.13
2023-03-26T03:21:15.749Z,6.15
2023-03-26T03:23:44.092Z,3.17
2023-03-26T03:26:16.445Z,6.68
2023-03-26T03:28:51.792Z,5.00
2023-03-26T03:31:19.764Z,3.60
2023-03-26T03:33:47.804Z,6.80
2023-03-26T03:36:22.018Z,4.80
2023-03-26T03:39:02.370Z,2.78
2023-03-26T03:41:31.242Z,6.18
2023-03-26T03:44:03.205Z,3.95
2023-03-26T03:46:33.380Z,7.18
2023-03-26T03:49:01.409Z,3.53
2023-03-26T03:51:35.198Z,4.07
2023-03-26T03:54:06.061Z,4.80
2023-03-26T03:56:54.394Z,3.63
2023-03-26T03:59:38.562Z,5.07
2023-03-26T04:02:21.217Z,4.43
2023-03-26T04:04:58.472Z,7.18
2023-03-26T04:07:26.840Z,4.05
2023-03-26T04:10:08.183Z,3.25
2023-03-26T04:12:54.801Z,6.90
2023-03-26T04:15:39.605Z,5.50
2023-03-26T04:18:10.513Z,4.32
2023-03-26T04:20:42.048Z,3.95
2023-03-26T04:23:14.142Z,1.80
2023-03-26T04:25:48.265Z,7.05
2023-03-26T04:28:30.422Z,4.10
2023-03-26T04:31:24.120Z,3.40
2023-03-26T04:33:55.863Z,4.28
2023-03-26T04:36:28.435Z,3.45
2023-03-26T04:41:46.958Z,5.40
2023-03-26T04:44:22.418Z,3.75
2023-03-26T04:46:57.229Z,5.68
2023-03-26T04:49:32.390Z,4.13
2023-03-26T04:52:00.766Z,4.15
2023-03-26T04:54:58.154Z,2.28
2023-03-26T04:57:30.655Z,4.63
2023-03-26T05:00:14.929Z,7.13
2023-03-26T05:02:45.832Z,2.47
2023-03-26T05:05:16.240Z,3.67
2023-03-26T05:07:44.274Z,6.13
2023-03-26T05:10:16.915Z,2.95
2023-03-26T05:12:51.730Z,6.63
2023-03-26T05:15:24.318Z,4.17
2023-03-26T05:18:08.705Z,2.72
2023-03-26T05:20:43.485Z,2.45
2023-03-26T05:23:11.839Z,4.32
2023-03-26T05:25:43.357Z,3.75
2023-03-26T05:28:24.201Z,6.70
2023-03-26T05:30:57.288Z,6.05
2023-03-26T05:33:29.610Z,5.47
2023-03-26T05:36:04.120Z,4.13
2023-03-26T05:38:33.492Z,3.83
2023-03-26T05:41:05.211Z,2.45
2023-03-26T05:43:35.213Z,4.00
2023-03-26T05:46:35.585Z,3.15
2023-03-26T05:49:05.066Z,3.25
2023-03-26T05:51:35.954Z,3.88
2023-03-26T05:54:26.764Z,4.30
2023-03-26T05:57:28.376Z,8.32
2023-03-26T06:00:28.643Z,3.88
2023-03-26T06:02:58.845Z,6.32
2023-03-26T06:08:48.776Z,4.85
2023-03-26T06:11:31.020Z,5.10
2023-03-26T06:13:59.254Z,5.65
2023-03-26T06:16:28.378Z,3.83
2023-03-26T06:19:17.406Z,3.50
2023-03-26T06:22:12.935Z,6.15
2023-03-26T06:25:13.116Z,4.13
2023-03-26T06:27:53.228Z,9.02
2023-03-26T06:30:40.168Z,8.02
2023-03-26T06:33:15.917Z,4.13
2023-03-26T06:35:48.571Z,5.60
2023-03-26T06:38:18.898Z,2.28
2023-03-26T06:40:47.023Z,8.77
2023-03-26T06:43:33.642Z,6.85
2023-03-26T06:46:23.491Z,3.17
2023-03-26T06:49:10.332Z,4.43
2023-03-26T06:51:41.434Z,4.30
2023-03-26T06:54:10.873Z,4.35
2023-03-26T06:56:50.608Z,5.32
2023-03-26T06:59:28.392Z,3.17
2023-03-26T07:02:15.022Z,6.65
2023-03-26T07:05:01.663Z,4.03
2023-03-26T07:07:48.739Z,2.40
2023-03-26T07:10:43.823Z,5.78
2023-03-26T07:13:25.641Z,2.35
2023-03-26T07:15:56.620Z,3.83
2023-03-26T07:18:38.597Z,7.68
2023-03-26T07:21:10.837Z,5.55
2023-03-26T07:23:39.298Z,3.00
2023-03-26T07:26:35.506Z,5.03
2023-03-26T07:29:19.086Z,3.80
2023-03-26T07:32:04.381Z,3.63
2023-03-26T07:34:41.496Z,5.00
2023-03-26T07:37:33.470Z,6.25
2023-03-26T07:40:25.489Z,3.75
2023-03-26T07:43:41.056Z,5.70
2023-03-26T07:46:48.024Z,4.03
2023-03-26T07:49:35.342Z,5.03
2023-03-26T07:52:24.033Z,2.80
2023-03-26T07:55:19.473Z,6.78
2023-03-26T07:58:20.731Z,5.07
2023-03-26T08:01:24.615Z,5.45
2023-03-26T08:04:27.814Z,3.22
2023-03-26T08:07:19.321Z,4.60
2023-03-26T08:10:15.618Z,6.05
2023-03-26T08:13:00.887Z,3.67
2023-03-26T08:15:33.444Z,6.70
2023-03-26T08:18:15.967Z,7.80
2023-03-26T08:20:48.788Z,10.25
2023-03-26T08:23:24.733Z,4.30
2023-03-26T08:26:02.298Z,6.05
2023-03-26T08:28:43.377Z,5.20
2023-03-26T08:31:13.893Z,5.30
2023-03-26T08:33:43.592Z,7.50
2023-03-26T08:36:11.685Z,3.92
2023-03-26T08:38:39.576Z,5.00
2023-03-26T08:41:42.622Z,4.32
2023-03-26T08:44:48.798Z,7.10
2023-03-26T08:48:10.475Z,4.50
2023-03-26T08:51:15.204Z,4.97
2023-03-26T08:54:24.315Z,10.32
2023-03-26T08:56:58.680Z,5.28
2023-03-26T09:00:02.764Z,5.03
2023-03-26T09:03:00.352Z,7.53
2023-03-26T09:05:55.748Z,4.55
2023-03-26T09:09:19.308Z,7.20
2023-03-26T09:12:11.628Z,4.97
2023-03-26T09:15:13.709Z,8.65
2023-03-26T09:17:58.586Z,5.50
2023-03-26T09:20:56.011Z,4.78
2023-03-26T09:23:52.667Z,8.30
2023-03-26T09:26:30.838Z,4.63
2023-03-26T09:29:43.254Z,4.25
2023-03-26T09:32:42.119Z,5.35
2023-03-26T09:35:15.719Z,5.10
2023-03-26T09:37:58.044Z,4.82
2023-03-26T09:40:38.001Z,4.60
2023-03-26T09:43:42.378Z,6.30
2023-03-26T09:46:24.909Z,4.15
2023-03-26T09:49:06.400Z,6.10
2023-03-26T09:51:53.640Z,7.00
2023-03-26T09:54:54.127Z,4.78
2023-03-26T09:57:39.924Z,6.30
2023-03-26T10:00:28.024Z,7.45
2023-03-26T10:03:17.390Z,4.07
2023-03-26T10:06:00.588Z,5.57
2023-03-26T10:08:41.309Z,3.67
2023-03-26T10:11:18.395Z,5.13
2023-03-26T10:13:58.221Z,3.90
2023-03-26T10:16:34.979Z,7.68
2023-03-26T10:19:21.168Z,7.38
2023-03-26T10:21:58.849Z,6.93
2023-03-26T10:24:44.979Z,3.88
2023-03-26T10:27:32.311Z,5.45
2023-03-26T10:30:29.477Z,4.25
2023-03-26T10:33:18.156Z,4.95
2023-03-26T10:36:00.767Z,6.78
2023-03-26T10:38:42.152Z,3.05
2023-03-26T10:41:18.332Z,3.10
2023-03-26T10:44:24.533Z,5.82
2023-03-26T10:47:36.782Z,4.57
2023-03-26T10:50:24.366Z,3.40
2023-03-26T10:52:57.795Z,6.38
2023-03-26T10:55:32.928Z,5.35
2023-03-26T10:58:06.818Z,4.85
2023-03-26T11:00:39.864Z,3.10
2023-03-26T11:03:44.766Z,5.10
2023-03-26T11:06:31.693Z,2.53
2023-03-26T11:09:10.204Z,4.15
2023-03-26T11:11:46.122Z,4.03
2023-03-26T11:14:33.753Z,2.08
2023-03-26T11:17:14.879Z,2.63
2023-03-26T11:20:04.327Z,2.65
2023-03-26T11:22:45.069Z,3.08
2023-03-26T11:25:43.325Z,1.63
2023-03-26T11:28:23.705Z,3.10
2023-03-26T11:30:56.779Z,3.30
2023-03-26T11:33:32.742Z,4.32
2023-03-26T11:36:04.749Z,2.65
2023-03-26T11:38:38.723Z,3.28
2023-03-26T11:41:14.090Z,2.92
2023-03-26T11:43:58.210Z,0.98
2023-03-26T11:46:33.127Z,3.17
2023-03-26T11:49:06.710Z,3.63
2023-03-26T11:51:36.708Z,2.42
2023-03-26T11:54:07.888Z,1.80
2023-03-26T11:57:04.597Z,1.00
2023-03-26T11:59:41.939Z,0.85
2023-03-26T12:02:25.346Z,1.13
2023-03-26T12:04:55.542Z,1.95
2023-03-26T12:07:31.766Z,1.27
2023-03-26T12:10:18.700Z,0.68
2023-03-26T12:12:48.593Z,1.10
2023-03-26T12:15:18.945Z,1.92
2023-03-26T12:17:48.241Z,2.33
2023-03-26T12:20:38.655Z,1.98
2023-03-26T12:23:08.203Z,2.15
2023-03-26T12:25:41.057Z,2.60
2023-03-26T12:28:19.317Z,1.67
2023-03-26T12:30:55.011Z,3.85
2023-03-26T12:33:26.876Z,1.92
2023-03-26T12:36:23.126Z,2.13
2023-03-26T12:39:17.027Z,1.23
2023-03-26T12:44:43.668Z,2.80
2023-03-26T12:44:52.617Z,1.13
2023-03-26T12:48:01.001Z,1.20
2023-03-26T12:50:16.208Z,1.52
2023-03-26T12:52:59.709Z,1.40
2023-03-26T12:55:44.005Z,2.75
2023-03-26T12:58:28.439Z,1.40
2023-03-26T13:01:03.325Z,1.48
2023-03-26T13:03:41.784Z,1.50
2023-03-26T13:06:23.613Z,1.38
2023-03-26T13:09:19.786Z,1.20
2023-03-26T13:12:02.545Z,1.85
2023-03-26T13:14:55.772Z,1.00
2023-03-26T13:17:29.544Z,1.73
2023-03-26T13:20:11.765Z,1.17
2023-03-26T13:22:47.804Z,1.70
2023-03-26T13:25:27.290Z,2.53
2023-03-26T13:28:09.207Z,1.40
2023-03-26T13:30:45.793Z,1.58
2023-03-26T13:33:36.454Z,1.75
2023-03-26T13:36:23.328Z,2.83
2023-03-26T13:39:09.349Z,1.42
2023-03-26T13:42:03.508Z,2.45
2023-03-26T13:44:43.819Z,1.92
2023-03-26T13:47:17.149Z,1.48
2023-03-26T13:52:22.897Z,1.00
2023-03-26T13:54:55.221Z,0.68
2023-03-26T13:57:29.410Z,1.00
2023-03-26T14:00:01.426Z,1.23
2023-03-26T14:02:37.358Z,1.67
2023-03-26T14:05:09.280Z,2.63
2023-03-26T14:07:43.955Z,2.72
2023-03-26T14:10:16.275Z,0.82
2023-03-26T14:12:53.491Z,1.95
2023-03-26T14:15:27.591Z,2.83
2023-03-26T14:18:06.977Z,4.32
2023-03-26T14:21:00.170Z,1.88
2023-03-26T14:24:05.605Z,4.85
2023-03-26T14:26:55.996Z,1.67
2023-03-26T14:29:32.434Z,2.33
2023-03-26T14:32:13.616Z,4.35
2023-03-26T14:34:54.164Z,4.80
2023-03-26T14:37:52.910Z,3.05
2023-03-26T14:40:31.301Z,7.00
2023-03-26T14:43:13.762Z,2.20
2023-03-26T14:45:55.793Z,1.65
2023-03-26T14:48:53.351Z,3.58
2023-03-26T14:51:33.494Z,1.67
2023-03-26T14:54:06.790Z,1.27
2023-03-26T14:57:10.847Z,2.67
2023-03-26T15:00:17.245Z,2.30
2023-03-26T15:03:41.014Z,3.58
2023-03-26T15:06:45.161Z,5.05
2023-03-26T15:12:12.141Z,13.73
2023-03-26T15:15:13.809Z,3.55
2023-03-26T15:18:21.107Z,1.88
2023-03-26T15:21:23.033Z,1.98
2023-03-26T15:24:30.564Z,2.10
2023-03-26T15:27:31.133Z,1.52
2023-03-26T15:30:30.127Z,1.20
2023-03-26T15:33:36.884Z,2.38
2023-03-26T15:36:53.185Z,1.13
2023-03-26T15:40:07.278Z,1.60
2023-03-26T15:42:47.784Z,1.83
2023-03-26T15:45:27.569Z,4.43
2023-03-26T15:48:13.647Z,7.20
2023-03-26T15:50:52.824Z,9.00
2023-03-26T15:53:33.594Z,9.63
2023-03-26T15:56:18.685Z,5.47
2023-03-26T15:58:56.510Z,2.65
2023-03-26T16:01:38.867Z,3.00
2023-03-26T16:04:19.103Z,1.75
2023-03-26T16:06:56.577Z,2.50
2023-03-26T16:09:56.273Z,1.23
2023-03-26T16:12:47.203Z,1.73
2023-03-26T16:15:25.155Z,2.08
2023-03-26T16:18:26.598Z,1.13
2023-03-26T16:20:56.036Z,1.63
2023-03-26T16:23:30.723Z,2.28
2023-03-26T16:26:12.136Z,0.88
2023-03-26T16:29:08.785Z,1.42
2023-03-26T16:31:39.381Z,2.88
2023-03-26T16:34:47.568Z,1.55
2023-03-26T16:37:38.461Z,1.50
2023-03-26T16:40:28.208Z,3.10
2023-03-26T16:43:21.744Z,4.20
2023-03-26T16:45:58.061Z,5.47
2023-03-26T16:48:33.321Z,8.43
2023-03-26T16:51:11.341Z,5.18
2023-03-26T16:53:47.625Z,5.28
2023-03-26T16:56:18.059Z,4.05
2023-03-26T16:58:54.936Z,3.00
2023-03-26T17:01:35.552Z,2.05
2023-03-26T17:04:07.666Z,2.05
2023-03-26T17:07:09.639Z,1.67
2023-03-26T17:09:51.832Z,3.55
2023-03-26T17:12:31.376Z,2.05
2023-03-26T17:15:14.866Z,1.67
2023-03-26T17:18:01.127Z,1.80
2023-03-26T17:20:36.882Z,3.70
2023-03-26T17:23:27.002Z,1.98
2023-03-26T17:26:05.867Z,1.48
2023-03-26T17:28:59.914Z,2.47
2023-03-26T17:31:41.143Z,3.17
2023-03-26T17:34:45.402Z,4.20
2023-03-26T17:40:37.103Z,2.22
2023-03-26T17:43:11.058Z,1.33
2023-03-26T17:45:40.878Z,0.90
2023-03-26T17:48:17.641Z,2.10
2023-03-26T17:50:52.322Z,1.27
2023-03-26T17:53:24.477Z,1.95
2023-03-26T17:55:53.238Z,1.23
2023-03-26T17:58:28.797Z,2.25
2023-03-26T18:01:05.337Z,0.40
2023-03-26T18:03:37.293Z,0.73
2023-03-26T18:06:12.012Z,0.30
2023-03-26T18:09:06.190Z,0.60
2023-03-26T18:11:53.914Z,0.40
2023-03-26T18:14:55.546Z,0.40
2023-03-26T18:17:25.482Z,0.50
2023-03-26T18:19:55.598Z,1.25
2023-03-26T18:22:27.679Z,0.30
2023-03-26T18:24:59.738Z,0.50
2023-03-26T18:27:38.504Z,0.73
2023-03-26T18:30:17.277Z,0.63
2023-03-26T18:32:52.760Z,1.02
2023-03-26T18:35:23.068Z,0.68
2023-03-26T18:37:55.840Z,0.57
2023-03-26T18:40:26.512Z,0.30
2023-03-26T18:42:57.324Z,0.70
2023-03-26T18:45:29.206Z,1.88
2023-03-26T18:48:02.056Z,0.73
2023-03-26T18:50:35.811Z,0.65
2023-03-26T18:53:07.471Z,1.00
2023-03-26T18:55:39.403Z,0.47
2023-03-26T18:58:21.539Z,1.15
2023-03-26T19:00:52.766Z,0.55
2023-03-26T19:03:24.247Z,0.40
2023-03-26T19:05:53.598Z,0.52
2023-03-26T19:08:24.049Z,4.13
2023-03-26T19:10:53.393Z,0.40
2023-03-26T19:13:22.552Z,0.88
2023-03-26T19:15:52.889Z,0.52
2023-03-26T19:18:23.499Z,0.20
2023-03-26T19:20:54.422Z,1.42
2023-03-26T19:23:28.549Z,0.38
2023-03-26T19:25:59.703Z,0.90
2023-03-26T19:28:32.182Z,0.30
2023-03-26T19:31:08.938Z,0.23
2023-03-26T19:33:39.288Z,0.30
2023-03-26T19:36:21.067Z,0.85
2023-03-26T19:38:53.744Z,0.57
2023-03-26T19:41:24.310Z,1.40
2023-03-26T19:43:55.937Z,0.73
2023-03-26T19:46:26.302Z,0.52
2023-03-26T19:48:55.763Z,1.80
2023-03-26T19:51:26.139Z,1.13
2023-03-26T19:53:56.427Z,0.40
2023-03-26T19:56:24.733Z,0.50
2023-03-26T19:58:52.713Z,0.38
2023-03-26T20:01:22.708Z,1.33
2023-03-26T20:03:53.641Z,0.40
2023-03-26T20:06:30.716Z,2.10
2023-03-26T20:09:07.794Z,2.17
2023-03-26T20:11:39.576Z,0.63
2023-03-26T20:14:13.759Z,0.90
2023-03-26T20:16:42.864Z,0.73
2023-03-26T20:19:14.069Z,0.40
2023-03-26T20:21:42.447Z,1.80
2023-03-26T20:24:15.670Z,0.98
2023-03-26T20:29:11.680Z,0.60
2023-03-26T20:31:41.284Z,0.45
2023-03-26T20:34:18.944Z,0.52
2023-03-26T20:36:47.430Z,0.77
2023-03-26T20:39:16.654Z,0.45
2023-03-26T20:41:46.435Z,0.40
2023-03-26T20:44:16.645Z,1.85
2023-03-26T20:46:45.661Z,1.70
2023-03-26T20:49:14.913Z,1.60
2023-03-26T20:51:43.720Z,1.05
2023-03-26T20:54:17.996Z,0.57
2023-03-26T20:56:47.956Z,0.50
2023-03-26T20:59:21.446Z,1.58
2023-03-26T21:01:50.270Z,1.20
2023-03-26T21:04:19.167Z,0.77
2023-03-26T21:06:47.430Z,1.17
2023-03-26T21:09:23.473Z,0.30
2023-03-26T21:11:56.093Z,0.57
2023-03-26T21:14:27.005Z,0.70
2023-03-26T21:16:55.560Z,0.25
2023-03-26T21:19:24.111Z,0.30
2023-03-26T21:22:06.185Z,1.27
2023-03-26T21:24:50.593Z,0.38
2023-03-26T21:27:26.306Z,0.63
2023-03-26T21:29:55.259Z,2.72
2023-03-26T21:32:24.199Z,1.42
2023-03-26T21:34:58.610Z,0.20
2023-03-26T21:37:28.788Z,0.45
2023-03-26T21:40:00.133Z,0.30
2023-03-26T21:42:29.324Z,0.57
2023-03-26T21:44:57.948Z,0.52
2023-03-26T21:47:26.940Z,2.65
2023-03-26T21:49:55.440Z,0.80
2023-03-26T21:52:23.979Z,1.17
2023-03-26T21:54:52.769Z,1.05
2023-03-26T21:57:39.674Z,0.22
2023-03-26T22:00:15.166Z,0.82
2023-03-26T22:03:00.995Z,0.57
2023-03-26T22:05:38.720Z,1.10
2023-03-26T22:08:08.099Z,0.40
2023-03-26T22:10:37.019Z,1.35
2023-03-26T22:13:06.263Z,0.60
2023-03-26T22:15:35.361Z,0.95
2023-03-26T22:18:04.018Z,0.30
2023-03-26T22:20:32.247Z,1.52
2023-03-26T22:23:01.805Z,0.57
2023-03-26T22:25:31.014Z,1.45
2023-03-26T22:27:59.116Z,1.50
2023-03-26T22:30:28.413Z,0.20
2023-03-26T22:32:56.804Z,0.82
2023-03-26T22:35:24.922Z,0.63
2023-03-26T22:37:53.413Z,0.50
2023-03-26T22:40:29.228Z,0.38
2023-03-26T22:42:57.098Z,1.65
2023-03-26T22:45:24.998Z,2.28
2023-03-26T22:48:03.969Z,0.52
2023-03-26T22:50:32.449Z,0.52
2023-03-26T22:53:00.473Z,0.75
2023-03-26T22:55:29.807Z,1.52
2023-03-26T22:57:58.342Z,0.35
2023-03-26T23:00:26.491Z,1.50
2023-03-26T23:03:00.255Z,0.93
2023-03-26T23:05:30.223Z,2.47
2023-03-26T23:07:58.290Z,0.68
2023-03-26T23:10:26.209Z,0.50
2023-03-26T23:12:54.110Z,1.17
2023-03-26T23:15:22.110Z,1.08
2023-03-26T23:17:54.858Z,1.00
2023-03-26T23:20:24.545Z,1.65
2023-03-26T23:22:52.623Z,0.52
2023-03-26T23:25:20.784Z,1.10
2023-03-26T23:27:50.576Z,0.55
2023-03-26T23:30:19.806Z,1.25
2023-03-26T23:32:47.904Z,0.85
2023-03-26T23:35:16.032Z,1.05
2023-03-26T23:37:45.224Z,1.17
2023-03-26T23:40:14.122Z,0.50
2023-03-26T23:42:42.404Z,0.40
2023-03-26T23:45:12.161Z,1.70
2023-03-26T23:47:42.392Z,0.95
2023-03-26T23:50:11.477Z,0.50
2023-03-26T23:52:39.354Z,0.93
2023-03-26T23:55:09.528Z,0.63
2023-03-26T23:57:38.000Z,2.55
